Oak Hill, West Virginia
Current Conditions -  °F | °C
As of 11:51 AM on Monday 22 Dec 2014 (Local Time) from KBKW Reporting Station
Overcast Overcast  
Wind Chill: 30°   Ceiling: 2700
Heat Index: 38°   Visibility: 10mi
Dew Point: 31°   Wind: 12mph
Humidity: 76%   Direction: 130°SE
Pressure: 30.02"   Gusts: NA
Location:  37.97°N, 81.15°W
Report Text: KBKW 221651Z AUTO 13010KT 10SM OVC027 03/M01 A3002 RMK AO2 SLP186 T00331006
Loading
Personal Weather Stations






























Interactive Weather Map New forecast layout! Learn more

10-Day Weather Forecast

Advertisements
Track Severe Weather on mobile